sensor_id;sensor_type;location;lat;lon;timestamp;P1;durP1;ratioP1;P2;durP2;ratioP2
57828;SDS011;43657;52.698;6.314;2023-06-01T00:01:34;13.65;;;8.77;;
57828;SDS011;43657;52.698;6.314;2023-06-01T00:04:02;12.60;;;8.55;;
57828;SDS011;43657;52.698;6.314;2023-06-01T00:06:28;13.20;;;8.68;;
57828;SDS011;43657;52.698;6.314;2023-06-01T00:08:55;13.50;;;8.35;;
57828;SDS011;43657;52.698;6.314;2023-06-01T00:11:21;15.23;;;9.15;;
57828;SDS011;43657;52.698;6.314;2023-06-01T00:13:48;15.60;;;9.23;;
57828;SDS011;43657;52.698;6.314;2023-06-01T00:16:14;14.52;;;8.90;;
57828;SDS011;43657;52.698;6.314;2023-06-01T00:18:40;12.45;;;8.52;;
57828;SDS011;43657;52.698;6.314;2023-06-01T00:21:06;15.25;;;9.05;;
57828;SDS011;43657;52.698;6.314;2023-06-01T00:23:32;15.45;;;9.00;;
57828;SDS011;43657;52.698;6.314;2023-06-01T00:25:59;13.60;;;9.65;;
57828;SDS011;43657;52.698;6.314;2023-06-01T00:28:25;16.38;;;9.52;;
57828;SDS011;43657;52.698;6.314;2023-06-01T00:30:51;14.07;;;9.27;;
57828;SDS011;43657;52.698;6.314;2023-06-01T00:33:18;13.88;;;9.50;;
57828;SDS011;43657;52.698;6.314;2023-06-01T00:35:44;14.65;;;9.45;;
57828;SDS011;43657;52.698;6.314;2023-06-01T00:38:10;15.27;;;9.65;;
57828;SDS011;43657;52.698;6.314;2023-06-01T00:40:36;15.13;;;10.13;;
57828;SDS011;43657;52.698;6.314;2023-06-01T00:43:01;15.63;;;8.95;;
57828;SDS011;43657;52.698;6.314;2023-06-01T00:45:27;13.82;;;8.38;;
57828;SDS011;43657;52.698;6.314;2023-06-01T00:47:53;13.52;;;8.45;;
57828;SDS011;43657;52.698;6.314;2023-06-01T00:50:19;13.00;;;8.48;;
57828;SDS011;43657;52.698;6.314;2023-06-01T00:52:46;15.35;;;8.43;;
57828;SDS011;43657;52.698;6.314;2023-06-01T00:55:14;11.98;;;8.52;;
57828;SDS011;43657;52.698;6.314;2023-06-01T00:57:40;15.82;;;9.00;;
57828;SDS011;43657;52.698;6.314;2023-06-01T01:00:08;16.90;;;9.30;;
57828;SDS011;43657;52.698;6.314;2023-06-01T01:02:39;14.75;;;9.45;;
57828;SDS011;43657;52.698;6.314;2023-06-01T01:05:06;16.90;;;10.00;;
57828;SDS011;43657;52.698;6.314;2023-06-01T01:07:38;12.75;;;9.30;;
57828;SDS011;43657;52.698;6.314;2023-06-01T01:10:33;14.95;;;9.75;;
57828;SDS011;43657;52.698;6.314;2023-06-01T01:13:50;15.20;;;9.70;;
57828;SDS011;43657;52.698;6.314;2023-06-01T01:16:25;13.15;;;9.75;;
57828;SDS011;43657;52.698;6.314;2023-06-01T01:19:11;14.90;;;10.05;;
57828;SDS011;43657;52.698;6.314;2023-06-01T01:21:49;13.02;;;9.40;;
57828;SDS011;43657;52.698;6.314;2023-06-01T01:27:24;13.75;;;9.80;;
57828;SDS011;43657;52.698;6.314;2023-06-01T01:29:56;16.67;;;10.60;;
57828;SDS011;43657;52.698;6.314;2023-06-01T01:34:54;15.82;;;10.02;;
57828;SDS011;43657;52.698;6.314;2023-06-01T01:37:22;13.63;;;11.02;;
57828;SDS011;43657;52.698;6.314;2023-06-01T01:39:48;20.98;;;11.15;;
57828;SDS011;43657;52.698;6.314;2023-06-01T01:42:13;16.20;;;10.43;;
57828;SDS011;43657;52.698;6.314;2023-06-01T01:44:39;16.23;;;11.27;;
57828;SDS011;43657;52.698;6.314;2023-06-01T01:47:19;15.20;;;11.52;;
57828;SDS011;43657;52.698;6.314;2023-06-01T01:49:53;14.10;;;10.52;;
57828;SDS011;43657;52.698;6.314;2023-06-01T01:52:34;13.02;;;10.35;;
57828;SDS011;43657;52.698;6.314;2023-06-01T01:55:03;17.13;;;10.85;;
57828;SDS011;43657;52.698;6.314;2023-06-01T01:57:32;16.17;;;11.35;;
57828;SDS011;43657;52.698;6.314;2023-06-01T01:59:59;14.90;;;10.55;;
57828;SDS011;43657;52.698;6.314;2023-06-01T02:02:25;17.27;;;11.18;;
57828;SDS011;43657;52.698;6.314;2023-06-01T02:04:51;14.18;;;10.93;;
57828;SDS011;43657;52.698;6.314;2023-06-01T02:07:17;17.35;;;11.40;;
57828;SDS011;43657;52.698;6.314;2023-06-01T02:09:42;14.30;;;10.25;;
57828;SDS011;43657;52.698;6.314;2023-06-01T02:12:08;15.98;;;9.85;;
57828;SDS011;43657;52.698;6.314;2023-06-01T02:14:34;16.05;;;11.00;;
57828;SDS011;43657;52.698;6.314;2023-06-01T02:17:00;14.70;;;9.60;;
57828;SDS011;43657;52.698;6.314;2023-06-01T02:19:26;18.25;;;10.45;;
57828;SDS011;43657;52.698;6.314;2023-06-01T02:21:52;17.02;;;10.10;;
57828;SDS011;43657;52.698;6.314;2023-06-01T02:24:18;15.05;;;9.93;;
57828;SDS011;43657;52.698;6.314;2023-06-01T02:26:47;16.55;;;10.93;;
57828;SDS011;43657;52.698;6.314;2023-06-01T02:29:17;17.90;;;10.27;;
57828;SDS011;43657;52.698;6.314;2023-06-01T02:31:44;12.82;;;9.88;;
57828;SDS011;43657;52.698;6.314;2023-06-01T02:34:10;13.65;;;9.98;;
57828;SDS011;43657;52.698;6.314;2023-06-01T02:36:36;16.60;;;9.90;;
57828;SDS011;43657;52.698;6.314;2023-06-01T02:39:01;17.90;;;10.93;;
57828;SDS011;43657;52.698;6.314;2023-06-01T02:41:27;15.32;;;10.00;;
57828;SDS011;43657;52.698;6.314;2023-06-01T02:43:52;16.52;;;11.18;;
57828;SDS011;43657;52.698;6.314;2023-06-01T02:46:18;14.90;;;9.75;;
57828;SDS011;43657;52.698;6.314;2023-06-01T02:48:44;16.98;;;10.05;;
57828;SDS011;43657;52.698;6.314;2023-06-01T02:51:10;14.77;;;9.57;;
57828;SDS011;43657;52.698;6.314;2023-06-01T02:53:38;13.23;;;9.65;;
57828;SDS011;43657;52.698;6.314;2023-06-01T02:56:07;14.82;;;10.45;;
57828;SDS011;43657;52.698;6.314;2023-06-01T02:58:32;14.30;;;9.07;;
57828;SDS011;43657;52.698;6.314;2023-06-01T03:00:58;11.73;;;9.02;;
57828;SDS011;43657;52.698;6.314;2023-06-01T03:03:24;16.08;;;9.55;;
57828;SDS011;43657;52.698;6.314;2023-06-01T03:05:50;13.57;;;9.20;;
57828;SDS011;43657;52.698;6.314;2023-06-01T03:08:16;12.60;;;9.63;;
57828;SDS011;43657;52.698;6.314;2023-06-01T03:10:42;14.82;;;9.25;;
57828;SDS011;43657;52.698;6.314;2023-06-01T03:13:08;14.23;;;8.90;;
57828;SDS011;43657;52.698;6.314;2023-06-01T03:15:34;14.57;;;10.13;;
57828;SDS011;43657;52.698;6.314;2023-06-01T03:18:02;12.98;;;9.02;;
57828;SDS011;43657;52.698;6.314;2023-06-01T03:20:28;13.60;;;9.65;;
57828;SDS011;43657;52.698;6.314;2023-06-01T03:22:54;15.57;;;9.63;;
57828;SDS011;43657;52.698;6.314;2023-06-01T03:25:20;14.27;;;9.50;;
57828;SDS011;43657;52.698;6.314;2023-06-01T03:27:45;13.77;;;9.68;;
57828;SDS011;43657;52.698;6.314;2023-06-01T03:30:11;14.90;;;9.98;;
57828;SDS011;43657;52.698;6.314;2023-06-01T03:32:37;15.43;;;9.52;;
57828;SDS011;43657;52.698;6.314;2023-06-01T03:35:06;14.50;;;9.27;;
57828;SDS011;43657;52.698;6.314;2023-06-01T03:37:44;13.90;;;9.65;;
57828;SDS011;43657;52.698;6.314;2023-06-01T03:40:10;12.88;;;9.38;;
57828;SDS011;43657;52.698;6.314;2023-06-01T03:42:43;12.50;;;9.32;;
57828;SDS011;43657;52.698;6.314;2023-06-01T03:45:11;13.60;;;8.82;;
57828;SDS011;43657;52.698;6.314;2023-06-01T03:47:38;13.68;;;9.65;;
57828;SDS011;43657;52.698;6.314;2023-06-01T03:50:04;14.10;;;8.75;;
57828;SDS011;43657;52.698;6.314;2023-06-01T03:52:31;14.35;;;9.75;;
57828;SDS011;43657;52.698;6.314;2023-06-01T03:54:58;13.10;;;8.93;;
57828;SDS011;43657;52.698;6.314;2023-06-01T03:57:25;13.90;;;8.52;;
57828;SDS011;43657;52.698;6.314;2023-06-01T03:59:51;14.35;;;8.63;;
57828;SDS011;43657;52.698;6.314;2023-06-01T04:02:16;16.00;;;8.85;;
57828;SDS011;43657;52.698;6.314;2023-06-01T04:04:44;16.48;;;10.52;;
57828;SDS011;43657;52.698;6.314;2023-06-01T04:07:13;13.40;;;8.45;;
57828;SDS011;43657;52.698;6.314;2023-06-01T04:09:46;15.55;;;8.32;;
57828;SDS011;43657;52.698;6.314;2023-06-01T04:12:13;12.48;;;7.78;;
57828;SDS011;43657;52.698;6.314;2023-06-01T04:14:39;12.02;;;7.53;;
57828;SDS011;43657;52.698;6.314;2023-06-01T04:17:05;11.27;;;7.70;;
57828;SDS011;43657;52.698;6.314;2023-06-01T04:19:31;11.82;;;7.55;;
57828;SDS011;43657;52.698;6.314;2023-06-01T04:21:58;9.52;;;7.15;;
57828;SDS011;43657;52.698;6.314;2023-06-01T04:24:24;11.90;;;7.78;;
57828;SDS011;43657;52.698;6.314;2023-06-01T04:26:50;10.30;;;7.45;;
57828;SDS011;43657;52.698;6.314;2023-06-01T04:29:16;11.00;;;6.95;;
57828;SDS011;43657;52.698;6.314;2023-06-01T04:31:44;13.15;;;7.90;;
57828;SDS011;43657;52.698;6.314;2023-06-01T04:34:10;12.02;;;6.78;;
57828;SDS011;43657;52.698;6.314;2023-06-01T04:36:36;10.38;;;6.65;;
57828;SDS011;43657;52.698;6.314;2023-06-01T04:39:04;9.15;;;6.90;;
57828;SDS011;43657;52.698;6.314;2023-06-01T04:41:31;10.80;;;6.50;;
57828;SDS011;43657;52.698;6.314;2023-06-01T04:43:57;9.00;;;5.75;;
57828;SDS011;43657;52.698;6.314;2023-06-01T04:46:23;9.95;;;6.63;;
57828;SDS011;43657;52.698;6.314;2023-06-01T04:48:54;9.88;;;6.55;;
57828;SDS011;43657;52.698;6.314;2023-06-01T04:51:22;9.13;;;6.10;;
57828;SDS011;43657;52.698;6.314;2023-06-01T04:53:50;9.27;;;6.43;;
57828;SDS011;43657;52.698;6.314;2023-06-01T04:56:26;10.75;;;7.00;;
57828;SDS011;43657;52.698;6.314;2023-06-01T04:58:55;10.43;;;6.68;;
57828;SDS011;43657;52.698;6.314;2023-06-01T05:01:22;9.05;;;6.78;;
57828;SDS011;43657;52.698;6.314;2023-06-01T05:03:50;11.02;;;6.97;;
57828;SDS011;43657;52.698;6.314;2023-06-01T05:06:17;10.30;;;7.22;;
57828;SDS011;43657;52.698;6.314;2023-06-01T05:08:44;8.30;;;6.43;;
57828;SDS011;43657;52.698;6.314;2023-06-01T05:11:10;9.20;;;6.97;;
57828;SDS011;43657;52.698;6.314;2023-06-01T05:13:36;14.18;;;7.47;;
57828;SDS011;43657;52.698;6.314;2023-06-01T05:16:03;10.63;;;6.43;;
57828;SDS011;43657;52.698;6.314;2023-06-01T05:18:29;12.27;;;7.30;;
57828;SDS011;43657;52.698;6.314;2023-06-01T05:20:55;9.43;;;7.45;;
57828;SDS011;43657;52.698;6.314;2023-06-01T05:23:21;10.05;;;6.60;;
57828;SDS011;43657;52.698;6.314;2023-06-01T05:25:47;10.40;;;6.22;;
57828;SDS011;43657;52.698;6.314;2023-06-01T05:28:12;10.02;;;6.10;;
57828;SDS011;43657;52.698;6.314;2023-06-01T05:30:38;9.82;;;6.32;;
57828;SDS011;43657;52.698;6.314;2023-06-01T05:33:03;10.50;;;6.13;;
57828;SDS011;43657;52.698;6.314;2023-06-01T05:35:29;10.32;;;6.28;;
57828;SDS011;43657;52.698;6.314;2023-06-01T05:37:55;9.93;;;6.68;;
57828;SDS011;43657;52.698;6.314;2023-06-01T05:40:20;10.75;;;6.70;;
57828;SDS011;43657;52.698;6.314;2023-06-01T05:42:46;11.07;;;7.15;;
57828;SDS011;43657;52.698;6.314;2023-06-01T05:45:11;10.57;;;6.40;;
57828;SDS011;43657;52.698;6.314;2023-06-01T05:47:37;11.52;;;6.38;;
57828;SDS011;43657;52.698;6.314;2023-06-01T05:50:03;11.63;;;6.65;;
57828;SDS011;43657;52.698;6.314;2023-06-01T05:52:30;10.50;;;6.65;;
57828;SDS011;43657;52.698;6.314;2023-06-01T05:54:55;9.48;;;6.60;;
57828;SDS011;43657;52.698;6.314;2023-06-01T05:57:21;10.30;;;6.38;;
57828;SDS011;43657;52.698;6.314;2023-06-01T05:59:46;10.88;;;6.93;;
57828;SDS011;43657;52.698;6.314;2023-06-01T06:02:15;8.93;;;6.40;;
57828;SDS011;43657;52.698;6.314;2023-06-01T06:04:41;10.30;;;5.85;;
57828;SDS011;43657;52.698;6.314;2023-06-01T06:07:08;9.85;;;6.10;;
57828;SDS011;43657;52.698;6.314;2023-06-01T06:09:34;11.15;;;6.63;;
57828;SDS011;43657;52.698;6.314;2023-06-01T06:12:00;10.43;;;6.10;;
57828;SDS011;43657;52.698;6.314;2023-06-01T06:14:26;28.60;;;7.32;;
57828;SDS011;43657;52.698;6.314;2023-06-01T06:16:52;9.82;;;6.57;;
57828;SDS011;43657;52.698;6.314;2023-06-01T06:19:17;11.50;;;6.22;;
57828;SDS011;43657;52.698;6.314;2023-06-01T06:21:43;10.85;;;6.25;;
57828;SDS011;43657;52.698;6.314;2023-06-01T06:24:09;11.30;;;6.68;;
57828;SDS011;43657;52.698;6.314;2023-06-01T06:26:35;10.18;;;5.93;;
57828;SDS011;43657;52.698;6.314;2023-06-01T06:29:00;8.95;;;6.15;;
57828;SDS011;43657;52.698;6.314;2023-06-01T06:31:26;11.63;;;6.55;;
57828;SDS011;43657;52.698;6.314;2023-06-01T06:33:51;10.80;;;6.15;;
57828;SDS011;43657;52.698;6.314;2023-06-01T06:36:17;9.95;;;6.25;;
57828;SDS011;43657;52.698;6.314;2023-06-01T06:38:43;12.52;;;6.63;;
57828;SDS011;43657;52.698;6.314;2023-06-01T06:41:09;10.13;;;6.05;;
57828;SDS011;43657;52.698;6.314;2023-06-01T06:43:35;10.15;;;6.35;;
57828;SDS011;43657;52.698;6.314;2023-06-01T06:46:01;9.10;;;6.70;;
57828;SDS011;43657;52.698;6.314;2023-06-01T06:48:28;11.35;;;5.90;;
57828;SDS011;43657;52.698;6.314;2023-06-01T06:50:53;12.40;;;6.15;;
57828;SDS011;43657;52.698;6.314;2023-06-01T06:53:19;10.20;;;6.35;;
57828;SDS011;43657;52.698;6.314;2023-06-01T06:55:45;10.07;;;5.95;;
57828;SDS011;43657;52.698;6.314;2023-06-01T06:58:10;13.27;;;7.15;;
57828;SDS011;43657;52.698;6.314;2023-06-01T07:00:36;11.48;;;6.72;;
57828;SDS011;43657;52.698;6.314;2023-06-01T07:03:02;11.27;;;6.72;;
57828;SDS011;43657;52.698;6.314;2023-06-01T07:05:28;8.57;;;5.88;;
57828;SDS011;43657;52.698;6.314;2023-06-01T07:07:54;9.68;;;6.43;;
57828;SDS011;43657;52.698;6.314;2023-06-01T07:10:20;10.13;;;5.88;;
57828;SDS011;43657;52.698;6.314;2023-06-01T07:12:45;9.32;;;5.88;;
57828;SDS011;43657;52.698;6.314;2023-06-01T07:15:11;9.57;;;6.30;;
57828;SDS011;43657;52.698;6.314;2023-06-01T07:17:37;9.00;;;6.35;;
57828;SDS011;43657;52.698;6.314;2023-06-01T07:20:03;9.63;;;6.22;;
57828;SDS011;43657;52.698;6.314;2023-06-01T07:22:31;9.57;;;6.80;;
57828;SDS011;43657;52.698;6.314;2023-06-01T07:24:58;11.95;;;6.75;;
57828;SDS011;43657;52.698;6.314;2023-06-01T07:27:23;10.60;;;6.55;;
57828;SDS011;43657;52.698;6.314;2023-06-01T07:29:49;12.48;;;6.43;;
57828;SDS011;43657;52.698;6.314;2023-06-01T07:32:20;8.98;;;5.43;;
57828;SDS011;43657;52.698;6.314;2023-06-01T07:34:47;7.10;;;5.32;;
57828;SDS011;43657;52.698;6.314;2023-06-01T07:37:13;9.68;;;5.75;;
57828;SDS011;43657;52.698;6.314;2023-06-01T07:39:39;8.88;;;5.70;;
57828;SDS011;43657;52.698;6.314;2023-06-01T07:42:04;9.90;;;5.10;;
57828;SDS011;43657;52.698;6.314;2023-06-01T07:44:30;10.63;;;5.80;;
57828;SDS011;43657;52.698;6.314;2023-06-01T07:46:56;9.27;;;5.53;;
57828;SDS011;43657;52.698;6.314;2023-06-01T07:49:22;10.07;;;5.55;;
57828;SDS011;43657;52.698;6.314;2023-06-01T07:51:47;9.73;;;6.28;;
57828;SDS011;43657;52.698;6.314;2023-06-01T07:54:13;7.68;;;5.72;;
57828;SDS011;43657;52.698;6.314;2023-06-01T07:56:39;10.52;;;6.32;;
57828;SDS011;43657;52.698;6.314;2023-06-01T07:59:04;9.60;;;5.88;;
57828;SDS011;43657;52.698;6.314;2023-06-01T08:01:30;10.57;;;5.82;;
57828;SDS011;43657;52.698;6.314;2023-06-01T08:03:57;8.75;;;5.30;;
57828;SDS011;43657;52.698;6.314;2023-06-01T08:06:23;11.57;;;5.35;;
57828;SDS011;43657;52.698;6.314;2023-06-01T08:08:50;9.07;;;5.30;;
57828;SDS011;43657;52.698;6.314;2023-06-01T08:11:16;7.63;;;4.85;;
57828;SDS011;43657;52.698;6.314;2023-06-01T08:13:43;8.45;;;4.55;;
57828;SDS011;43657;52.698;6.314;2023-06-01T08:16:11;7.95;;;4.05;;
57828;SDS011;43657;52.698;6.314;2023-06-01T08:18:41;8.55;;;4.63;;
57828;SDS011;43657;52.698;6.314;2023-06-01T08:21:09;6.53;;;4.05;;
57828;SDS011;43657;52.698;6.314;2023-06-01T08:23:35;9.18;;;4.43;;
57828;SDS011;43657;52.698;6.314;2023-06-01T08:26:02;8.63;;;4.47;;
57828;SDS011;43657;52.698;6.314;2023-06-01T08:28:30;10.45;;;4.75;;
57828;SDS011;43657;52.698;6.314;2023-06-01T08:30:58;6.93;;;4.70;;
57828;SDS011;43657;52.698;6.314;2023-06-01T08:33:24;7.97;;;3.75;;
57828;SDS011;43657;52.698;6.314;2023-06-01T08:35:51;9.23;;;4.00;;
57828;SDS011;43657;52.698;6.314;2023-06-01T08:38:20;9.07;;;4.18;;
57828;SDS011;43657;52.698;6.314;2023-06-01T08:40:46;6.97;;;4.13;;
57828;SDS011;43657;52.698;6.314;2023-06-01T08:43:17;7.22;;;4.10;;
57828;SDS011;43657;52.698;6.314;2023-06-01T08:45:45;11.77;;;4.78;;
57828;SDS011;43657;52.698;6.314;2023-06-01T08:48:15;7.47;;;4.55;;
57828;SDS011;43657;52.698;6.314;2023-06-01T08:50:44;7.95;;;4.45;;
57828;SDS011;43657;52.698;6.314;2023-06-01T08:53:13;9.60;;;4.82;;
57828;SDS011;43657;52.698;6.314;2023-06-01T08:55:44;8.43;;;4.60;;
57828;SDS011;43657;52.698;6.314;2023-06-01T08:58:12;7.28;;;4.43;;
57828;SDS011;43657;52.698;6.314;2023-06-01T09:00:39;7.75;;;4.63;;
57828;SDS011;43657;52.698;6.314;2023-06-01T09:03:06;8.32;;;4.30;;
57828;SDS011;43657;52.698;6.314;2023-06-01T09:05:32;6.05;;;4.13;;
57828;SDS011;43657;52.698;6.314;2023-06-01T09:07:57;6.50;;;4.63;;
57828;SDS011;43657;52.698;6.314;2023-06-01T09:10:23;8.00;;;4.18;;
57828;SDS011;43657;52.698;6.314;2023-06-01T09:12:53;7.88;;;4.47;;
57828;SDS011;43657;52.698;6.314;2023-06-01T09:15:20;5.72;;;3.88;;
57828;SDS011;43657;52.698;6.314;2023-06-01T09:17:49;9.57;;;4.07;;
57828;SDS011;43657;52.698;6.314;2023-06-01T09:20:23;6.28;;;4.28;;
57828;SDS011;43657;52.698;6.314;2023-06-01T09:22:51;8.45;;;4.60;;
57828;SDS011;43657;52.698;6.314;2023-06-01T09:25:22;6.75;;;4.10;;
57828;SDS011;43657;52.698;6.314;2023-06-01T09:27:53;5.43;;;3.55;;
57828;SDS011;43657;52.698;6.314;2023-06-01T09:30:21;5.82;;;3.40;;
57828;SDS011;43657;52.698;6.314;2023-06-01T09:32:49;6.07;;;3.03;;
57828;SDS011;43657;52.698;6.314;2023-06-01T09:36:04;7.70;;;3.43;;
57828;SDS011;43657;52.698;6.314;2023-06-01T09:38:24;7.78;;;4.15;;
57828;SDS011;43657;52.698;6.314;2023-06-01T09:40:59;6.60;;;3.78;;
57828;SDS011;43657;52.698;6.314;2023-06-01T09:43:26;5.50;;;3.50;;
57828;SDS011;43657;52.698;6.314;2023-06-01T09:46:08;7.30;;;3.83;;
57828;SDS011;43657;52.698;6.314;2023-06-01T09:48:36;6.05;;;3.80;;
57828;SDS011;43657;52.698;6.314;2023-06-01T09:51:02;7.90;;;3.80;;
57828;SDS011;43657;52.698;6.314;2023-06-01T09:53:28;6.03;;;3.67;;
57828;SDS011;43657;52.698;6.314;2023-06-01T09:56:05;6.20;;;3.88;;
57828;SDS011;43657;52.698;6.314;2023-06-01T09:58:30;5.55;;;3.70;;
57828;SDS011;43657;52.698;6.314;2023-06-01T10:00:57;4.68;;;3.15;;
57828;SDS011;43657;52.698;6.314;2023-06-01T10:03:24;5.80;;;3.20;;
57828;SDS011;43657;52.698;6.314;2023-06-01T10:05:51;4.53;;;3.00;;
57828;SDS011;43657;52.698;6.314;2023-06-01T10:08:18;4.53;;;2.50;;
57828;SDS011;43657;52.698;6.314;2023-06-01T10:10:48;5.63;;;2.80;;
57828;SDS011;43657;52.698;6.314;2023-06-01T10:13:14;3.78;;;2.35;;
57828;SDS011;43657;52.698;6.314;2023-06-01T10:15:40;3.28;;;2.03;;
57828;SDS011;43657;52.698;6.314;2023-06-01T10:18:06;3.08;;;2.15;;
57828;SDS011;43657;52.698;6.314;2023-06-01T10:20:33;3.35;;;2.28;;
57828;SDS011;43657;52.698;6.314;2023-06-01T10:23:00;5.32;;;2.78;;
57828;SDS011;43657;52.698;6.314;2023-06-01T10:25:32;5.72;;;3.17;;
57828;SDS011;43657;52.698;6.314;2023-06-01T10:28:08;7.45;;;4.28;;
57828;SDS011;43657;52.698;6.314;2023-06-01T10:30:36;5.63;;;4.00;;
57828;SDS011;43657;52.698;6.314;2023-06-01T10:33:02;6.35;;;3.97;;
57828;SDS011;43657;52.698;6.314;2023-06-01T10:40:41;5.63;;;3.45;;
57828;SDS011;43657;52.698;6.314;2023-06-01T10:45:53;6.30;;;3.58;;
57828;SDS011;43657;52.698;6.314;2023-06-01T10:48:20;7.25;;;4.30;;
57828;SDS011;43657;52.698;6.314;2023-06-01T10:51:19;7.20;;;5.10;;
57828;SDS011;43657;52.698;6.314;2023-06-01T10:53:47;7.47;;;4.60;;
57828;SDS011;43657;52.698;6.314;2023-06-01T11:01:37;9.45;;;5.43;;
57828;SDS011;43657;52.698;6.314;2023-06-01T11:04:04;8.07;;;4.88;;
57828;SDS011;43657;52.698;6.314;2023-06-01T11:06:37;9.15;;;5.18;;
57828;SDS011;43657;52.698;6.314;2023-06-01T11:09:06;6.55;;;4.47;;
57828;SDS011;43657;52.698;6.314;2023-06-01T11:14:19;10.75;;;5.30;;
57828;SDS011;43657;52.698;6.314;2023-06-01T11:16:50;8.27;;;4.90;;
57828;SDS011;43657;52.698;6.314;2023-06-01T11:19:19;9.45;;;4.53;;
57828;SDS011;43657;52.698;6.314;2023-06-01T11:21:51;8.47;;;4.77;;
57828;SDS011;43657;52.698;6.314;2023-06-01T11:24:36;7.90;;;4.72;;
57828;SDS011;43657;52.698;6.314;2023-06-01T11:27:09;9.63;;;4.35;;
57828;SDS011;43657;52.698;6.314;2023-06-01T11:29:36;10.07;;;4.93;;
57828;SDS011;43657;52.698;6.314;2023-06-01T11:32:02;9.68;;;4.65;;
57828;SDS011;43657;52.698;6.314;2023-06-01T11:34:36;8.77;;;4.60;;
57828;SDS011;43657;52.698;6.314;2023-06-01T11:37:14;11.25;;;4.57;;
57828;SDS011;43657;52.698;6.314;2023-06-01T11:39:41;8.68;;;4.55;;
57828;SDS011;43657;52.698;6.314;2023-06-01T11:44:37;10.07;;;4.10;;
57828;SDS011;43657;52.698;6.314;2023-06-01T11:47:04;11.32;;;4.78;;
57828;SDS011;43657;52.698;6.314;2023-06-01T11:49:39;10.48;;;4.20;;
57828;SDS011;43657;52.698;6.314;2023-06-01T11:52:08;9.23;;;4.10;;
57828;SDS011;43657;52.698;6.314;2023-06-01T11:54:34;8.35;;;3.88;;
57828;SDS011;43657;52.698;6.314;2023-06-01T11:57:01;9.82;;;3.72;;
57828;SDS011;43657;52.698;6.314;2023-06-01T11:59:30;7.10;;;3.70;;
57828;SDS011;43657;52.698;6.314;2023-06-01T12:02:16;7.53;;;3.90;;
57828;SDS011;43657;52.698;6.314;2023-06-01T12:05:03;9.88;;;4.15;;
57828;SDS011;43657;52.698;6.314;2023-06-01T12:07:46;7.30;;;3.75;;
57828;SDS011;43657;52.698;6.314;2023-06-01T12:10:15;7.53;;;3.80;;
57828;SDS011;43657;52.698;6.314;2023-06-01T12:12:43;9.07;;;4.18;;
57828;SDS011;43657;52.698;6.314;2023-06-01T12:15:15;10.65;;;4.45;;
57828;SDS011;43657;52.698;6.314;2023-06-01T12:17:50;8.90;;;3.50;;
57828;SDS011;43657;52.698;6.314;2023-06-01T12:20:30;7.13;;;3.20;;
57828;SDS011;43657;52.698;6.314;2023-06-01T12:23:02;6.93;;;3.83;;
57828;SDS011;43657;52.698;6.314;2023-06-01T12:25:49;10.18;;;4.13;;
57828;SDS011;43657;52.698;6.314;2023-06-01T12:28:23;9.02;;;4.05;;
57828;SDS011;43657;52.698;6.314;2023-06-01T12:31:12;10.57;;;4.40;;
57828;SDS011;43657;52.698;6.314;2023-06-01T12:33:39;25.02;;;4.82;;
57828;SDS011;43657;52.698;6.314;2023-06-01T12:36:07;7.38;;;4.25;;
57828;SDS011;43657;52.698;6.314;2023-06-01T12:38:37;8.88;;;4.32;;
57828;SDS011;43657;52.698;6.314;2023-06-01T12:41:16;7.32;;;4.45;;
57828;SDS011;43657;52.698;6.314;2023-06-01T12:43:46;9.85;;;4.40;;
57828;SDS011;43657;52.698;6.314;2023-06-01T12:46:24;8.73;;;4.13;;
57828;SDS011;43657;52.698;6.314;2023-06-01T12:48:52;10.07;;;4.75;;
57828;SDS011;43657;52.698;6.314;2023-06-01T12:51:19;8.68;;;3.83;;
57828;SDS011;43657;52.698;6.314;2023-06-01T12:53:48;12.32;;;4.80;;
57828;SDS011;43657;52.698;6.314;2023-06-01T12:56:16;8.80;;;4.50;;
57828;SDS011;43657;52.698;6.314;2023-06-01T12:58:42;10.70;;;4.53;;
57828;SDS011;43657;52.698;6.314;2023-06-01T13:01:08;9.55;;;4.30;;
57828;SDS011;43657;52.698;6.314;2023-06-01T13:03:34;7.78;;;4.00;;
57828;SDS011;43657;52.698;6.314;2023-06-01T13:06:00;10.27;;;4.57;;
57828;SDS011;43657;52.698;6.314;2023-06-01T13:08:26;7.88;;;4.30;;
57828;SDS011;43657;52.698;6.314;2023-06-01T13:10:55;7.07;;;4.47;;
57828;SDS011;43657;52.698;6.314;2023-06-01T13:13:23;9.75;;;4.40;;
57828;SDS011;43657;52.698;6.314;2023-06-01T13:15:48;10.65;;;4.43;;
57828;SDS011;43657;52.698;6.314;2023-06-01T13:18:14;9.48;;;4.65;;
57828;SDS011;43657;52.698;6.314;2023-06-01T13:20:40;16.63;;;5.38;;
57828;SDS011;43657;52.698;6.314;2023-06-01T13:23:06;9.75;;;4.25;;
57828;SDS011;43657;52.698;6.314;2023-06-01T13:25:33;9.10;;;4.43;;
57828;SDS011;43657;52.698;6.314;2023-06-01T13:28:00;8.75;;;4.40;;
57828;SDS011;43657;52.698;6.314;2023-06-01T13:30:28;8.38;;;4.32;;
57828;SDS011;43657;52.698;6.314;2023-06-01T13:32:57;9.65;;;4.03;;
57828;SDS011;43657;52.698;6.314;2023-06-01T13:35:23;8.13;;;4.05;;
57828;SDS011;43657;52.698;6.314;2023-06-01T13:37:49;8.18;;;3.90;;
57828;SDS011;43657;52.698;6.314;2023-06-01T13:40:18;6.75;;;3.58;;
57828;SDS011;43657;52.698;6.314;2023-06-01T13:42:50;12.35;;;4.50;;
57828;SDS011;43657;52.698;6.314;2023-06-01T13:45:20;5.97;;;4.07;;
57828;SDS011;43657;52.698;6.314;2023-06-01T13:47:46;7.35;;;3.80;;
57828;SDS011;43657;52.698;6.314;2023-06-01T13:50:14;12.52;;;3.90;;
57828;SDS011;43657;52.698;6.314;2023-06-01T13:52:43;7.40;;;3.88;;
57828;SDS011;43657;52.698;6.314;2023-06-01T13:55:09;7.20;;;3.92;;
57828;SDS011;43657;52.698;6.314;2023-06-01T13:57:42;6.55;;;3.45;;
57828;SDS011;43657;52.698;6.314;2023-06-01T14:00:08;6.65;;;3.67;;
57828;SDS011;43657;52.698;6.314;2023-06-01T14:02:35;6.88;;;3.58;;
57828;SDS011;43657;52.698;6.314;2023-06-01T14:05:03;6.85;;;3.40;;
57828;SDS011;43657;52.698;6.314;2023-06-01T14:07:29;6.50;;;3.60;;
57828;SDS011;43657;52.698;6.314;2023-06-01T14:09:58;6.20;;;3.83;;
57828;SDS011;43657;52.698;6.314;2023-06-01T14:12:24;6.13;;;3.53;;
57828;SDS011;43657;52.698;6.314;2023-06-01T14:14:49;6.03;;;3.60;;
57828;SDS011;43657;52.698;6.314;2023-06-01T14:17:15;6.75;;;3.80;;
57828;SDS011;43657;52.698;6.314;2023-06-01T14:19:40;7.55;;;3.55;;
57828;SDS011;43657;52.698;6.314;2023-06-01T14:22:06;6.78;;;3.88;;
57828;SDS011;43657;52.698;6.314;2023-06-01T14:24:31;8.45;;;3.58;;
57828;SDS011;43657;52.698;6.314;2023-06-01T14:26:57;9.23;;;4.00;;
57828;SDS011;43657;52.698;6.314;2023-06-01T14:29:23;7.25;;;3.78;;
57828;SDS011;43657;52.698;6.314;2023-06-01T14:31:48;8.85;;;3.90;;
57828;SDS011;43657;52.698;6.314;2023-06-01T14:34:14;8.02;;;3.60;;
57828;SDS011;43657;52.698;6.314;2023-06-01T14:36:40;8.95;;;3.80;;
57828;SDS011;43657;52.698;6.314;2023-06-01T14:39:06;7.72;;;3.85;;
57828;SDS011;43657;52.698;6.314;2023-06-01T14:41:32;7.07;;;3.55;;
57828;SDS011;43657;52.698;6.314;2023-06-01T14:43:58;10.10;;;4.13;;
57828;SDS011;43657;52.698;6.314;2023-06-01T14:46:23;9.25;;;3.50;;
57828;SDS011;43657;52.698;6.314;2023-06-01T14:48:49;10.45;;;3.90;;
57828;SDS011;43657;52.698;6.314;2023-06-01T14:51:14;7.75;;;4.00;;
57828;SDS011;43657;52.698;6.314;2023-06-01T14:53:40;8.60;;;3.85;;
57828;SDS011;43657;52.698;6.314;2023-06-01T14:56:06;9.15;;;4.05;;
57828;SDS011;43657;52.698;6.314;2023-06-01T14:58:31;9.45;;;3.75;;
57828;SDS011;43657;52.698;6.314;2023-06-01T15:00:57;9.35;;;3.72;;
57828;SDS011;43657;52.698;6.314;2023-06-01T15:03:23;9.10;;;4.05;;
57828;SDS011;43657;52.698;6.314;2023-06-01T15:05:49;7.70;;;4.32;;
57828;SDS011;43657;52.698;6.314;2023-06-01T15:08:15;10.07;;;4.43;;
57828;SDS011;43657;52.698;6.314;2023-06-01T15:10:41;9.05;;;4.40;;